Time;durP1;ratioP1;P1;durP2;ratioP2;P2;SDS_P1;SDS_P2;PMS_P1;PMS_P2;Temp;Humidity;BMP_temperature;BMP_pressure;BME280_temperature;BME280_humidity;BME280_pressure;Samples;Min_cycle;Max_cycle;Signal;HPM_P1;HPM_P2
2023/12/13 16:06:52;;;;;;;4.03;1.80;;;;;;;5.39;100.00;92355.81;5112743;27;20452;-64
2023/12/13 20:35:29;;;;;;;3.90;1.88;;;;;;;4.83;100.00;92630.28;5119700;27;20433;-68
2023/12/13 20:38:19;;;;;;;3.85;2.25;;;;;;;4.63;100.00;92628.25;5102320;28;20496;-66
2023/12/13 20:41:08;;;;;;;3.50;1.98;;;;;;;4.74;100.00;92637.00;5103732;28;20055;-69
2023/12/13 20:43:55;;;;;;;3.43;1.37;;;;;;;4.66;100.00;92640.25;5102072;28;20090;-69
2023/12/13 20:46:42;;;;;;;2.67;1.33;;;;;;;4.49;100.00;92645.50;5101107;28;20051;-69
2023/12/13 20:49:29;;;;;;;4.70;2.40;;;;;;;4.40;100.00;92650.66;5104978;28;20131;-66
2023/12/13 20:52:16;;;;;;;3.42;1.90;;;;;;;4.30;100.00;92652.31;5104814;28;20047;-66
2023/12/13 20:55:05;;;;;;;3.63;1.80;;;;;;;4.24;100.00;92653.94;5103762;28;20043;-66
2023/12/13 20:57:51;;;;;;;4.97;2.37;;;;;;;4.35;100.00;92654.59;5099707;28;20044;-66
2023/12/13 21:00:38;;;;;;;3.25;2.00;;;;;;;4.15;100.00;92664.53;5103991;28;20476;-66
2023/12/13 21:03:25;;;;;;;3.80;2.20;;;;;;;4.22;100.00;92667.16;5102906;28;20047;-65
2023/12/13 21:06:13;;;;;;;5.88;3.40;;;;;;;3.97;100.00;92664.72;5102348;28;20036;-66
2023/12/13 21:09:01;;;;;;;4.07;2.42;;;;;;;3.84;100.00;92671.84;5102326;28;20484;-67
2023/12/13 21:11:48;;;;;;;3.70;2.20;;;;;;;3.84;100.00;92669.88;5098471;28;20132;-66
2023/12/13 21:14:35;;;;;;;4.72;2.58;;;;;;;3.75;100.00;92675.03;5101994;28;20051;-65
2023/12/13 21:17:22;;;;;;;4.28;2.35;;;;;;;3.96;100.00;92672.13;5101029;28;20497;-66
2023/12/13 21:20:10;;;;;;;5.80;2.90;;;;;;;3.81;100.00;92678.84;5105422;28;20040;-65
2023/12/13 21:22:57;;;;;;;5.55;2.10;;;;;;;3.84;100.00;92683.47;5103267;28;20485;-66
2023/12/13 21:25:47;;;;;;;5.83;3.03;;;;;;;3.80;100.00;92683.50;5102673;28;20123;-66
2023/12/13 21:28:34;;;;;;;5.45;2.40;;;;;;;3.87;100.00;92692.75;5104332;28;20127;-65
2023/12/13 21:31:21;;;;;;;5.78;3.15;;;;;;;3.80;100.00;92699.00;5103249;28;20898;-66
2023/12/13 21:34:09;;;;;;;5.13;2.58;;;;;;;3.83;100.00;92698.22;5094517;28;20048;-66
2023/12/13 21:36:56;;;;;;;5.22;2.30;;;;;;;3.91;100.00;92699.69;5079558;28;20130;-66
2023/12/13 21:39:43;;;;;;;4.83;2.10;;;;;;;3.88;100.00;92699.72;5080159;28;20048;-65
2023/12/13 21:42:30;;;;;;;4.22;2.30;;;;;;;3.96;100.00;92712.81;5064455;28;20047;-65
2023/12/13 21:45:17;;;;;;;3.03;1.52;;;;;;;3.91;100.00;92715.19;5078447;28;20181;-65
2023/12/13 21:48:05;;;;;;;2.80;1.35;;;;;;;3.59;100.00;92710.81;5065316;28;20044;-65
2023/12/13 21:50:53;;;;;;;2.92;1.48;;;;;;;3.82;100.00;92712.19;5070445;28;20036;-65
2023/12/13 21:53:40;;;;;;;4.27;2.33;;;;;;;3.99;100.00;92716.69;5066488;28;20051;-66
2023/12/13 21:56:27;;;;;;;5.60;2.80;;;;;;;3.94;100.00;92720.59;5066358;28;20056;-65
2023/12/13 21:59:13;;;;;;;4.45;2.28;;;;;;;3.75;100.00;92727.34;5067916;28;20051;-65
2023/12/13 22:02:01;;;;;;;5.75;2.65;;;;;;;3.85;100.00;92733.09;5064100;28;20051;-65
2023/12/13 22:04:48;;;;;;;6.28;3.15;;;;;;;4.06;100.00;92727.44;5071870;28;20048;-65
2023/12/13 22:07:35;;;;;;;5.40;2.17;;;;;;;4.07;100.00;92730.94;5065120;28;20045;-65
2023/12/13 22:10:26;;;;;;;7.18;3.08;;;;;;;3.96;100.00;92745.41;5070917;28;20056;-65
2023/12/13 22:13:13;;;;;;;7.78;3.40;;;;;;;3.89;100.00;92747.41;5053859;28;20048;-66
2023/12/13 22:16:01;;;;;;;4.45;1.85;;;;;;;3.62;100.00;92749.94;5054001;28;20498;-66
2023/12/13 22:18:59;;;;;;;5.32;1.83;;;;;;;3.67;100.00;92757.66;5053801;28;20052;-66
2023/12/13 22:21:49;;;;;;;3.07;2.00;;;;;;;3.50;100.00;92760.13;5053559;28;20041;-64
2023/12/13 22:24:39;;;;;;;4.75;2.20;;;;;;;3.58;100.00;92758.09;5064781;28;20056;-65
2023/12/13 22:27:26;;;;;;;4.32;2.35;;;;;;;3.69;100.00;92763.47;5065206;28;20107;-65
2023/12/13 22:30:13;;;;;;;4.55;2.30;;;;;;;3.48;100.00;92775.22;5052445;28;20141;-66
2023/12/13 22:33:00;;;;;;;5.35;2.65;;;;;;;3.51;100.00;92777.16;5051927;28;20041;-65
2023/12/13 22:35:48;;;;;;;6.20;2.80;;;;;;;3.60;100.00;92775.53;5052606;28;20092;-65
2023/12/13 22:38:35;;;;;;;11.20;5.93;;;;;;;3.59;100.00;92781.38;5065279;28;20041;-65
2023/12/13 22:41:22;;;;;;;5.45;2.30;;;;;;;3.24;100.00;92787.78;5057240;28;20050;-65
2023/12/13 22:44:09;;;;;;;5.10;2.38;;;;;;;3.32;100.00;92797.41;5060476;28;20048;-65
2023/12/13 22:46:57;;;;;;;4.53;2.25;;;;;;;3.50;100.00;92789.16;5052051;28;20041;-65
2023/12/13 22:49:44;;;;;;;4.10;2.10;;;;;;;3.53;100.00;92786.44;5059832;28;20497;-65
2023/12/13 22:52:31;;;;;;;5.55;2.38;;;;;;;3.66;100.00;92785.94;5052640;28;20639;-65
2023/12/13 22:55:19;;;;;;;5.03;2.10;;;;;;;3.60;100.00;92789.09;5052572;28;20052;-65
2023/12/13 22:58:06;;;;;;;5.00;1.80;;;;;;;3.55;100.00;92805.03;5052058;28;20478;-65
2023/12/13 23:00:53;;;;;;;3.95;2.22;;;;;;;3.33;100.00;92801.69;5052358;28;20415;-65
2023/12/13 23:03:41;;;;;;;6.83;3.33;;;;;;;3.37;100.00;92802.44;5053497;28;20079;-64
2023/12/13 23:06:34;;;;;;;9.27;3.92;;;;;;;3.37;100.00;92810.56;5051216;28;20103;-64
2023/12/13 23:09:21;;;;;;;11.77;5.20;;;;;;;3.54;100.00;92806.19;5052771;28;20071;-64
2023/12/13 23:12:08;;;;;;;10.20;4.25;;;;;;;3.60;100.00;92810.81;5053065;28;20057;-63
2023/12/13 23:14:55;;;;;;;8.98;3.90;;;;;;;3.64;100.00;92815.44;5052068;28;20049;-64
2023/12/13 23:17:42;;;;;;;13.13;5.70;;;;;;;3.43;100.00;92816.34;5052201;28;20141;-64
2023/12/13 23:20:29;;;;;;;37.63;13.18;;;;;;;3.46;100.00;92823.69;5052577;28;20044;-64
2023/12/13 23:23:17;;;;;;;28.42;9.70;;;;;;;3.63;100.00;92828.22;5052832;28;20399;-64
2023/12/13 23:26:04;;;;;;;16.92;6.50;;;;;;;3.52;100.00;92827.50;5054684;28;20040;-64
2023/12/13 23:28:51;;;;;;;12.98;4.95;;;;;;;3.79;100.00;92831.22;5062804;28;20045;-63
2023/12/13 23:31:38;;;;;;;12.73;4.77;;;;;;;3.86;100.00;92835.03;5055954;28;20055;-63
2023/12/13 23:34:28;;;;;;;7.75;3.38;;;;;;;3.76;100.00;92833.94;5051802;28;20064;-63
2023/12/13 23:37:15;;;;;;;6.47;2.80;;;;;;;3.76;100.00;92839.38;5052076;28;20045;-63
2023/12/13 23:40:03;;;;;;;6.00;2.40;;;;;;;3.67;100.00;92844.50;5053182;28;20052;-63
2023/12/13 23:42:50;;;;;;;5.90;2.85;;;;;;;3.73;100.00;92851.81;5053695;28;20391;-63
2023/12/13 23:45:37;;;;;;;8.20;3.90;;;;;;;3.91;100.00;92848.97;5052547;28;20056;-63
2023/12/13 23:48:24;;;;;;;4.32;2.17;;;;;;;3.99;100.00;92850.44;5051515;28;20041;-63
2023/12/13 23:51:11;;;;;;;4.43;1.92;;;;;;;4.02;100.00;92853.53;5052061;28;20053;-62
2023/12/13 23:53:58;;;;;;;6.82;2.78;;;;;;;3.75;100.00;92856.84;5051754;28;20057;-62
2023/12/13 23:56:45;;;;;;;7.45;3.50;;;;;;;3.69;100.00;92861.91;5051926;28;20056;-63
2023/12/13 23:59:31;;;;;;;6.40;3.10;;;;;;;3.85;100.00;92861.41;5061599;28;20044;-62
